Time;durP1;ratioP1;P1;durP2;ratioP2;P2;SDS_P1;SDS_P2;PMS_P1;PMS_P2;Temp;Humidity;BMP_temperature;BMP_pressure;BME280_temperature;BME280_humidity;BME280_pressure;Samples;Min_cycle;Max_cycle;Signal;HPM_P1;HPM_P2
2021/03/09 00:02:08;;;;;;;5.57;5.20;;;18.40;59.30;;;;;;5010646;28;20030;-38
2021/03/09 00:04:33;;;;;;;5.82;5.43;;;18.40;59.30;;;;;;5008712;28;20022;-36
2021/03/09 00:06:59;;;;;;;5.45;5.15;;;18.40;59.30;;;;;;5008784;28;20033;-38
2021/03/09 00:09:24;;;;;;;4.68;4.47;;;18.40;59.30;;;;;;5010362;28;20532;-35
2021/03/09 00:11:50;;;;;;;5.47;5.05;;;18.40;59.50;;;;;;5011023;28;20032;-39
2021/03/09 00:14:15;;;;;;;5.20;4.90;;;18.30;60.00;;;;;;5011021;28;20029;-39
2021/03/09 00:16:41;;;;;;;4.93;4.63;;;18.30;59.40;;;;;;5008807;28;20041;-35
2021/03/09 00:19:06;;;;;;;5.03;4.72;;;18.30;59.40;;;;;;5010322;28;20017;-36
2021/03/09 00:21:32;;;;;;;4.90;4.60;;;18.20;59.40;;;;;;5009658;28;20492;-35
2021/03/09 00:23:58;;;;;;;5.88;5.47;;;18.30;59.40;;;;;;5009427;28;20038;-39
2021/03/09 00:26:23;;;;;;;5.15;4.85;;;18.20;60.10;;;;;;5012512;28;20029;-39
2021/03/09 00:28:49;;;;;;;4.30;4.00;;;18.20;59.50;;;;;;5008666;28;20451;-38
2021/03/09 00:31:14;;;;;;;5.00;4.70;;;18.20;59.40;;;;;;4991219;28;20037;-36
2021/03/09 00:33:40;;;;;;;4.97;4.68;;;18.30;59.50;;;;;;5008918;28;20037;-35
2021/03/09 00:36:06;;;;;;;5.20;4.90;;;18.20;59.30;;;;;;5009023;28;20049;-37
2021/03/09 00:38:31;;;;;;;5.35;5.05;;;18.20;59.40;;;;;;5011154;28;20034;-36
2021/03/09 00:40:57;;;;;;;4.88;4.57;;;18.20;59.40;;;;;;5010087;28;20034;-35
2021/03/09 00:43:22;;;;;;;4.70;4.40;;;18.20;59.30;;;;;;5009725;28;20478;-38
2021/03/09 00:45:48;;;;;;;4.35;4.10;;;18.30;59.50;;;;;;5008727;28;20619;-39
2021/03/09 00:48:13;;;;;;;5.32;5.03;;;18.20;59.50;;;;;;5010882;28;20033;-38
2021/03/09 00:50:39;;;;;;;4.60;4.30;;;18.20;59.50;;;;;;5010798;28;20030;-39
2021/03/09 00:53:05;;;;;;;4.68;4.38;;;18.20;59.50;;;;;;5010558;28;20080;-41
2021/03/09 00:55:30;;;;;;;4.18;3.97;;;18.20;59.50;;;;;;5008346;28;20515;-36
2021/03/09 00:57:59;;;;;;;4.75;4.45;;;18.20;59.50;;;;;;5008359;28;20096;-38
2021/03/09 01:00:26;;;;;;;4.50;4.30;;;18.20;59.60;;;;;;5009207;28;20030;-39
2021/03/09 01:02:52;;;;;;;5.18;4.90;;;18.20;59.60;;;;;;5008354;28;20080;-39
2021/03/09 01:05:17;;;;;;;4.63;4.43;;;18.20;59.70;;;;;;5010292;28;20033;-37
2021/03/09 01:07:43;;;;;;;5.00;4.55;;;18.10;59.50;;;;;;5009162;28;20061;-40
2021/03/09 01:10:09;;;;;;;4.50;4.20;;;18.10;59.80;;;;;;4977035;28;20484;-39
2021/03/09 01:12:35;;;;;;;4.70;4.43;;;18.10;59.80;;;;;;5008065;28;20495;-38
2021/03/09 01:15:01;;;;;;;4.93;4.60;;;18.10;59.70;;;;;;5009071;28;20040;-37
2021/03/09 01:17:26;;;;;;;4.80;4.50;;;18.00;59.80;;;;;;5011898;28;20050;-39
2021/03/09 01:19:52;;;;;;;4.68;4.38;;;18.00;60.00;;;;;;5009544;28;20110;-38
2021/03/09 01:22:17;;;;;;;4.30;3.95;;;18.00;60.30;;;;;;5008516;28;20607;-35
2021/03/09 01:24:43;;;;;;;4.32;4.03;;;17.90;60.40;;;;;;5009358;28;20439;-32
2021/03/09 01:27:11;;;;;;;4.75;4.45;;;17.90;60.40;;;;;;5009067;28;20026;-37
2021/03/09 01:29:37;;;;;;;4.90;4.22;;;17.90;60.40;;;;;;5010864;28;20410;-41
2021/03/09 01:32:04;;;;;;;4.90;4.60;;;17.90;60.60;;;;;;5008779;28;20480;-37
2021/03/09 01:34:30;;;;;;;5.13;4.72;;;17.90;60.60;;;;;;5009259;28;20037;-36
2021/03/09 01:36:55;;;;;;;4.20;3.90;;;17.90;60.40;;;;;;5008141;28;20408;-37
2021/03/09 01:39:21;;;;;;;5.13;4.82;;;17.90;60.60;;;;;;5007806;28;20026;-37
2021/03/09 01:41:46;;;;;;;4.32;4.13;;;17.90;60.80;;;;;;5009693;28;20034;-36
2021/03/09 01:44:12;;;;;;;4.00;3.80;;;17.90;60.80;;;;;;5011492;28;20435;-38
2021/03/09 01:46:37;;;;;;;4.70;4.40;;;17.90;60.80;;;;;;5007827;28;20041;-37
2021/03/09 01:49:03;;;;;;;4.25;4.05;;;17.90;60.80;;;;;;4976784;28;20428;-40
2021/03/09 01:51:29;;;;;;;4.32;4.03;;;17.90;61.00;;;;;;4993468;28;20032;-37
2021/03/09 01:53:54;;;;;;;15.43;3.90;;;17.90;60.90;;;;;;5009135;28;20484;-35
2021/03/09 01:56:20;;;;;;;5.03;4.72;;;17.90;60.70;;;;;;5011750;28;20053;-32
2021/03/09 01:58:49;;;;;;;4.35;4.15;;;17.90;60.80;;;;;;4991657;28;20080;-36
2021/03/09 02:01:16;;;;;;;4.28;3.97;;;17.90;60.80;;;;;;5004482;28;20030;-41
2021/03/09 02:03:41;;;;;;;5.18;4.88;;;17.90;60.70;;;;;;5008383;28;20030;-37
2021/03/09 02:06:07;;;;;;;5.10;4.80;;;17.90;60.60;;;;;;5010228;28;20029;-40
2021/03/09 02:08:33;;;;;;;4.30;4.10;;;17.90;60.50;;;;;;5011247;28;20033;-36
2021/03/09 02:10:59;;;;;;;4.63;4.32;;;17.90;61.00;;;;;;4990068;28;20440;-39
2021/03/09 02:13:50;;;;;;;4.50;4.20;;;17.80;60.50;;;;;;4992119;28;20030;-35
2021/03/09 02:16:27;;;;;;;5.20;4.90;;;17.80;60.60;;;;;;4976989;28;20060;-40
2021/03/09 02:19:24;;;;;;;4.70;4.50;;;17.80;60.60;;;;;;4977091;28;20476;-38
2021/03/09 02:22:14;;;;;;;5.40;5.10;;;17.80;60.60;;;;;;5008409;28;20044;-37
2021/03/09 02:24:45;;;;;;;5.22;4.93;;;17.80;60.20;;;;;;5008674;28;20030;-32
2021/03/09 02:27:21;;;;;;;5.03;4.78;;;17.80;60.40;;;;;;5007282;28;20207;-36
2021/03/09 02:30:02;;;;;;;4.95;4.53;;;17.80;60.60;;;;;;4993313;28;20129;-35
2021/03/09 02:32:28;;;;;;;4.72;4.43;;;17.80;60.50;;;;;;4997334;28;20037;-35
2021/03/09 02:34:56;;;;;;;4.80;4.40;;;17.80;60.70;;;;;;4996249;28;20026;-37
2021/03/09 02:37:22;;;;;;;5.63;5.32;;;17.80;60.40;;;;;;4979663;28;20025;-38
2021/03/09 02:39:48;;;;;;;4.90;4.63;;;17.80;60.20;;;;;;4980153;28;20036;-37
2021/03/09 02:42:50;;;;;;;5.22;4.82;;;17.80;60.50;;;;;;4995706;28;20030;-37
2021/03/09 02:45:16;;;;;;;4.57;4.28;;;17.70;60.40;;;;;;5007655;28;20497;-38
2021/03/09 02:47:47;;;;;;;5.10;4.80;;;17.70;60.50;;;;;;4995292;28;20544;-38
2021/03/09 02:50:13;;;;;;;4.68;4.38;;;17.70;60.40;;;;;;4997198;28;20038;-34
2021/03/09 02:52:39;;;;;;;4.53;4.22;;;17.70;60.50;;;;;;4995900;28;20075;-38
2021/03/09 02:55:05;;;;;;;5.40;5.00;;;17.70;60.40;;;;;;4995480;28;20034;-38
2021/03/09 02:57:31;;;;;;;4.72;4.50;;;17.70;60.40;;;;;;4979564;28;20504;-36
2021/03/09 02:59:57;;;;;;;4.93;4.53;;;17.70;60.50;;;;;;4994751;28;20030;-37
2021/03/09 03:02:22;;;;;;;4.50;4.22;;;17.70;60.80;;;;;;4979384;28;20065;-38
2021/03/09 03:04:49;;;;;;;5.68;5.28;;;17.70;60.40;;;;;;4979020;28;20033;-38
2021/03/09 03:07:14;;;;;;;5.13;4.82;;;17.70;60.30;;;;;;4995677;28;20105;-36
2021/03/09 03:09:40;;;;;;;4.80;4.50;;;17.70;60.70;;;;;;4995898;28;20161;-35
2021/03/09 03:12:06;;;;;;;5.00;4.80;;;17.60;60.50;;;;;;4978704;28;20085;-35
2021/03/09 03:14:32;;;;;;;4.95;4.65;;;17.60;60.50;;;;;;4980827;28;20026;-37
2021/03/09 03:16:59;;;;;;;4.60;4.30;;;17.60;60.50;;;;;;5010227;28;20408;-35
2021/03/09 03:19:25;;;;;;;4.50;4.20;;;17.70;60.70;;;;;;4995329;28;20111;-33
2021/03/09 03:21:50;;;;;;;4.68;4.38;;;17.70;60.70;;;;;;5010102;28;20492;-36
2021/03/09 03:24:16;;;;;;;4.40;4.20;;;17.70;60.70;;;;;;4979492;28;20049;-37
2021/03/09 03:26:44;;;;;;;4.65;4.45;;;17.70;60.70;;;;;;4994640;28;20065;-38
2021/03/09 03:29:10;;;;;;;4.30;4.10;;;17.70;60.60;;;;;;4979286;28;20511;-38
2021/03/09 03:31:36;;;;;;;4.10;3.88;;;17.70;60.40;;;;;;4978606;28;20088;-35
2021/03/09 03:34:02;;;;;;;3.95;3.75;;;17.70;60.80;;;;;;4992587;28;20479;-37
2021/03/09 03:36:28;;;;;;;4.15;3.85;;;17.70;60.70;;;;;;4994456;28;20138;-33
2021/03/09 03:38:54;;;;;;;4.43;4.13;;;17.70;60.70;;;;;;4994701;28;20512;-36
2021/03/09 03:41:20;;;;;;;4.63;4.32;;;17.70;60.20;;;;;;5010882;28;20026;-34
2021/03/09 03:43:46;;;;;;;4.07;3.88;;;17.70;60.40;;;;;;5010244;28;20080;-35
2021/03/09 03:46:11;;;;;;;4.22;3.92;;;17.70;60.40;;;;;;5010812;28;20028;-35
2021/03/09 03:48:37;;;;;;;4.63;4.38;;;17.70;60.70;;;;;;5009991;28;20032;-38
2021/03/09 03:51:05;;;;;;;4.07;3.88;;;17.70;60.70;;;;;;4993045;28;20069;-41
2021/03/09 03:53:34;;;;;;;3.80;3.60;;;17.70;60.50;;;;;;5013490;28;20030;-38
2021/03/09 03:56:06;;;;;;;3.70;3.50;;;17.80;60.90;;;;;;5009873;28;20041;-35
2021/03/09 03:58:44;;;;;;;3.92;3.72;;;17.70;60.20;;;;;;5009418;28;20052;-35
2021/03/09 04:01:11;;;;;;;3.90;3.60;;;17.70;60.00;;;;;;4978049;28;20032;-35
2021/03/09 04:03:37;;;;;;;3.47;3.28;;;17.80;60.20;;;;;;5009506;28;20488;-38
2021/03/09 04:06:03;;;;;;;3.85;3.65;;;17.80;60.70;;;;;;4977163;28;20184;-37
2021/03/09 04:08:30;;;;;;;3.63;3.42;;;17.80;60.60;;;;;;5012484;28;20040;-36
2021/03/09 04:10:56;;;;;;;3.70;3.47;;;17.70;60.00;;;;;;4994226;28;20408;-35
2021/03/09 04:13:21;;;;;;;3.97;3.67;;;17.70;60.70;;;;;;5008988;28;20097;-34
2021/03/09 04:15:47;;;;;;;3.53;3.40;;;17.70;60.60;;;;;;4977597;28;20022;-33
2021/03/09 04:18:13;;;;;;;3.13;3.03;;;17.70;60.70;;;;;;4977898;28;20042;-36
2021/03/09 04:20:40;;;;;;;3.53;3.33;;;17.70;60.00;;;;;;4978794;28;20037;-39
2021/03/09 04:23:06;;;;;;;3.50;3.30;;;17.70;59.80;;;;;;5009467;28;20523;-37
2021/03/09 04:25:35;;;;;;;3.78;3.58;;;17.70;60.40;;;;;;4994711;28;20053;-36
2021/03/09 04:28:03;;;;;;;4.18;3.75;;;17.70;60.00;;;;;;4977994;28;20543;-43
2021/03/09 04:30:32;;;;;;;4.60;4.30;;;17.70;60.20;;;;;;5009390;28;20053;-38
2021/03/09 04:32:59;;;;;;;3.83;3.63;;;17.70;59.80;;;;;;4976756;28;20030;-38
2021/03/09 04:35:25;;;;;;;4.25;4.05;;;17.70;59.80;;;;;;4978548;28;20114;-40
2021/03/09 04:37:50;;;;;;;3.20;3.00;;;17.70;60.30;;;;;;4976633;28;20061;-37
2021/03/09 04:40:16;;;;;;;3.33;3.13;;;17.70;59.90;;;;;;4993982;28;20057;-33
2021/03/09 04:42:41;;;;;;;3.15;2.95;;;17.70;60.10;;;;;;4993127;28;20029;-37
2021/03/09 04:45:07;;;;;;;3.40;3.20;;;17.70;60.20;;;;;;4992367;28;20082;-38
2021/03/09 04:47:33;;;;;;;3.33;3.13;;;17.70;59.80;;;;;;5008455;28;20511;-35
2021/03/09 04:49:59;;;;;;;3.45;3.25;;;17.70;59.90;;;;;;4993939;28;20113;-39
2021/03/09 04:52:25;;;;;;;3.60;3.40;;;17.70;60.00;;;;;;4993697;28;20018;-38
2021/03/09 04:54:52;;;;;;;3.42;3.22;;;17.60;60.10;;;;;;4993796;28;20400;-36
2021/03/09 04:57:17;;;;;;;2.95;2.83;;;17.70;59.80;;;;;;4977231;28;20511;-37
2021/03/09 04:59:43;;;;;;;3.65;3.42;;;17.70;60.20;;;;;;5011402;28;20104;-40
2021/03/09 05:02:09;;;;;;;3.20;3.10;;;17.70;59.80;;;;;;5009054;28;20033;-40
2021/03/09 05:04:35;;;;;;;3.13;3.03;;;17.70;60.10;;;;;;4990695;28;20069;-43
2021/03/09 05:07:00;;;;;;;3.28;3.08;;;17.70;60.40;;;;;;4993354;28;20057;-36
2021/03/09 05:09:26;;;;;;;3.22;3.08;;;17.60;59.90;;;;;;5008638;28;20109;-39
2021/03/09 05:11:51;;;;;;;2.85;2.75;;;17.70;60.00;;;;;;5010168;28;20037;-35
2021/03/09 05:14:17;;;;;;;3.25;3.05;;;17.60;60.10;;;;;;5010283;28;20026;-37
2021/03/09 05:16:42;;;;;;;3.47;3.28;;;17.60;59.80;;;;;;5008105;28;20735;-36
2021/03/09 05:19:08;;;;;;;3.28;3.17;;;17.60;60.00;;;;;;5009773;28;20037;-37
2021/03/09 05:21:34;;;;;;;3.50;3.30;;;17.60;60.00;;;;;;5008356;28;20030;-36
2021/03/09 05:23:59;;;;;;;3.20;3.00;;;17.60;59.90;;;;;;5009055;28;20399;-36
2021/03/09 05:26:27;;;;;;;3.72;3.53;;;17.70;60.70;;;;;;5012024;28;20084;-32
2021/03/09 05:28:52;;;;;;;3.25;3.10;;;17.60;60.10;;;;;;4991658;28;20026;-36
2021/03/09 05:31:18;;;;;;;4.10;3.75;;;17.60;60.50;;;;;;5009193;28;20046;-34
2021/03/09 05:33:44;;;;;;;4.10;3.90;;;17.60;59.60;;;;;;5010638;28;20415;-37
2021/03/09 05:36:09;;;;;;;4.07;3.67;;;17.60;60.20;;;;;;5009730;28;20057;-35
2021/03/09 05:38:35;;;;;;;4.28;4.07;;;17.60;59.60;;;;;;5011625;28;20469;-40
2021/03/09 05:41:00;;;;;;;4.13;3.92;;;17.60;59.90;;;;;;5007836;28;20518;-35
2021/03/09 05:43:26;;;;;;;4.05;3.75;;;17.50;60.00;;;;;;4990265;28;20046;-33
2021/03/09 05:45:52;;;;;;;4.32;4.13;;;17.50;60.00;;;;;;4992388;28;20101;-35
2021/03/09 05:48:18;;;;;;;4.25;3.80;;;17.50;60.60;;;;;;4977318;28;20030;-33
2021/03/09 05:50:43;;;;;;;7.82;3.95;;;17.60;60.60;;;;;;4993190;28;20029;-33
2021/03/09 05:53:09;;;;;;;5.35;4.88;;;17.60;60.50;;;;;;4992941;28;20033;-32
2021/03/09 05:55:34;;;;;;;5.25;4.75;;;17.50;60.90;;;;;;4992870;28;20109;-32
2021/03/09 05:58:00;;;;;;;5.82;4.82;;;17.50;61.80;;;;;;4990535;28;20523;-32
2021/03/09 06:00:26;;;;;;;5.68;5.38;;;17.50;62.10;;;;;;5008092;28;20160;-36
2021/03/09 06:02:52;;;;;;;6.18;5.53;;;17.50;62.80;;;;;;5010141;28;20037;-37
2021/03/09 06:05:18;;;;;;;5.57;5.07;;;17.50;64.00;;;;;;4993812;28;20626;-32
2021/03/09 06:07:44;;;;;;;5.97;5.57;;;17.50;64.90;;;;;;4996079;28;20026;-36
2021/03/09 06:10:23;;;;;;;5.55;5.13;;;17.50;65.00;;;;;;5012665;28;20396;-34
2021/03/09 06:12:50;;;;;;;6.00;4.35;;;17.60;66.50;;;;;;5016276;28;20034;-38
2021/03/09 06:15:15;;;;;;;4.40;4.00;;;17.60;67.50;;;;;;5011161;28;20041;-33
2021/03/09 06:17:42;;;;;;;4.32;4.10;;;17.60;66.90;;;;;;5014588;28;20030;-39
2021/03/09 06:20:29;;;;;;;5.28;4.78;;;17.60;66.70;;;;;;5011625;28;20041;-33
2021/03/09 06:22:58;;;;;;;4.40;4.20;;;17.60;67.00;;;;;;5011023;28;20042;-38
2021/03/09 06:25:37;;;;;;;4.90;4.60;;;17.60;67.00;;;;;;5011228;28;20838;-40
2021/03/09 06:28:04;;;;;;;5.00;4.60;;;17.60;67.30;;;;;;5011087;28;20066;-33
2021/03/09 06:30:34;;;;;;;5.35;5.05;;;17.70;66.60;;;;;;4990890;28;20088;-38
2021/03/09 06:33:00;;;;;;;4.80;4.50;;;17.60;67.30;;;;;;4992414;28;20146;-37
2021/03/09 06:35:42;;;;;;;5.03;4.57;;;17.60;67.10;;;;;;4994725;28;20127;-38
2021/03/09 06:38:20;;;;;;;4.80;4.35;;;17.60;66.90;;;;;;4994993;28;20038;-36
2021/03/09 06:41:10;;;;;;;5.38;4.97;;;17.60;66.70;;;;;;4991696;28;20026;-36
2021/03/09 06:43:36;;;;;;;5.30;4.93;;;17.60;67.30;;;;;;4990645;28;20030;-36
2021/03/09 06:46:15;;;;;;;5.80;5.22;;;17.60;66.70;;;;;;4990701;28;20022;-33
2021/03/09 06:48:41;;;;;;;4.55;4.25;;;17.60;66.30;;;;;;4991662;28;20077;-40
2021/03/09 06:51:06;;;;;;;4.60;4.40;;;17.60;66.50;;;;;;4991646;28;20405;-36
2021/03/09 06:53:32;;;;;;;4.72;4.53;;;17.60;66.30;;;;;;4995419;28;20029;-33
2021/03/09 06:55:58;;;;;;;4.70;4.40;;;17.60;66.60;;;;;;4989700;28;20026;-39
2021/03/09 06:58:28;;;;;;;4.72;4.43;;;17.60;66.00;;;;;;4990349;28;20038;-38
2021/03/09 07:00:54;;;;;;;4.55;4.25;;;17.60;66.20;;;;;;4990345;28;20024;-38
2021/03/09 07:03:36;;;;;;;4.35;4.07;;;17.60;66.60;;;;;;4987879;28;20408;-37
2021/03/09 07:06:02;;;;;;;4.75;4.45;;;17.60;66.60;;;;;;4987814;28;20027;-33
2021/03/09 07:08:27;;;;;;;4.90;4.60;;;17.60;66.60;;;;;;4989857;28;20037;-37
2021/03/09 07:10:54;;;;;;;4.68;4.38;;;17.60;66.80;;;;;;4644054;28;10000400;-38
2021/03/09 07:13:22;;;;;;;4.22;3.92;;;17.60;66.50;;;;;;4989039;28;20069;-37
2021/03/09 07:15:48;;;;;;;4.95;4.75;;;17.60;66.20;;;;;;4991047;28;20022;-37
2021/03/09 07:18:15;;;;;;;4.70;4.40;;;17.50;65.90;;;;;;4990799;28;20041;-36
2021/03/09 07:20:40;;;;;;;5.20;4.72;;;17.60;66.00;;;;;;4975500;28;20525;-37
2021/03/09 07:23:06;;;;;;;4.30;4.00;;;17.50;64.90;;;;;;4989406;28;20050;-37
2021/03/09 07:25:32;;;;;;;4.20;3.80;;;17.60;65.00;;;;;;4974567;28;20034;-36
2021/03/09 07:28:02;;;;;;;6.45;4.25;;;17.50;65.80;;;;;;4974118;28;20030;-35
2021/03/09 07:30:35;;;;;;;3.75;3.55;;;17.60;65.50;;;;;;4975382;28;20046;-37
2021/03/09 07:33:01;;;;;;;5.60;3.60;;;17.60;65.90;;;;;;4990876;28;20034;-35
2021/03/09 07:35:30;;;;;;;5.30;4.60;;;17.50;65.90;;;;;;4993177;28;20477;-38
2021/03/09 07:37:56;;;;;;;5.50;5.10;;;17.50;64.90;;;;;;4991222;28;20039;-38
2021/03/09 07:40:29;;;;;;;5.63;5.13;;;17.50;65.00;;;;;;4990147;28;20077;-38
2021/03/09 07:42:58;;;;;;;9.77;8.77;;;17.60;66.00;;;;;;4985555;28;20030;-36
2021/03/09 07:45:25;;;;;;;11.35;10.15;;;17.50;65.90;;;;;;4990328;28;20485;-39
2021/03/09 07:47:53;;;;;;;10.50;9.35;;;17.50;65.60;;;;;;4987628;28;20027;-32
2021/03/09 07:50:19;;;;;;;9.82;8.90;;;17.50;66.50;;;;;;4991372;28;20512;-40
2021/03/09 07:53:03;;;;;;;13.90;8.25;;;17.50;65.60;;;;;;4990732;28;20033;-32
2021/03/09 07:55:29;;;;;;;9.25;8.45;;;17.50;65.10;;;;;;4989268;28;20031;-34
2021/03/09 07:58:13;;;;;;;9.27;8.48;;;17.60;65.10;;;;;;4991169;28;20115;-34
2021/03/09 08:00:57;;;;;;;9.48;8.48;;;17.60;65.10;;;;;;4989599;28;20038;-33
2021/03/09 08:03:33;;;;;;;8.70;7.93;;;17.60;64.60;;;;;;4976217;28;20114;-36
2021/03/09 08:06:15;;;;;;;9.95;8.60;;;17.50;64.40;;;;;;4989685;28;20050;-34
2021/03/09 08:08:50;;;;;;;9.40;8.55;;;17.50;64.30;;;;;;4988107;28;20032;-35
2021/03/09 08:11:23;;;;;;;10.82;9.70;;;17.50;65.50;;;;;;4990747;28;20514;-32
2021/03/09 08:13:50;;;;;;;9.23;8.27;;;17.50;64.30;;;;;;4990971;28;20161;-34
2021/03/09 08:16:22;;;;;;;14.60;8.93;;;17.50;64.60;;;;;;4990425;28;20035;-38
2021/03/09 08:18:48;;;;;;;11.18;8.25;;;17.40;63.90;;;;;;4990077;28;20125;-32
2021/03/09 08:21:15;;;;;;;8.93;8.02;;;17.50;63.80;;;;;;4989826;28;20023;-36
2021/03/09 08:23:40;;;;;;;8.80;8.00;;;17.40;64.00;;;;;;4992315;28;20543;-33
2021/03/09 08:26:29;;;;;;;9.35;8.35;;;17.50;64.40;;;;;;4990462;28;20031;-33
2021/03/09 08:28:55;;;;;;;9.85;8.80;;;17.40;63.90;;;;;;4990077;28;20053;-36
2021/03/09 08:31:20;;;;;;;8.57;7.85;;;17.50;63.60;;;;;;4993550;28;20488;-35
2021/03/09 08:33:50;;;;;;;7.65;7.03;;;17.50;63.60;;;;;;5009158;28;20033;-40
2021/03/09 08:39:13;;;;;;;8.27;7.57;;;17.50;63.60;;;;;;5009194;28;20033;-37
2021/03/09 08:41:42;;;;;;;11.32;7.93;;;17.40;63.80;;;;;;4997641;28;20045;-39
2021/03/09 08:44:17;;;;;;;8.80;8.02;;;17.40;63.80;;;;;;5009351;28;20037;-41
2021/03/09 08:46:57;;;;;;;9.00;8.30;;;17.40;63.40;;;;;;5009686;28;20030;-35
2021/03/09 08:49:39;;;;;;;10.18;7.75;;;17.40;63.70;;;;;;5010123;28;20029;-34
2021/03/09 08:52:12;;;;;;;7.60;7.00;;;17.40;63.60;;;;;;5008205;28;20030;-36
2021/03/09 08:54:39;;;;;;;8.48;7.63;;;17.40;63.40;;;;;;5008955;28;20562;-37
2021/03/09 08:57:20;;;;;;;7.93;7.32;;;17.40;63.10;;;;;;5009386;28;20046;-41
2021/03/09 08:59:46;;;;;;;7.90;7.10;;;17.40;63.30;;;;;;5007984;28;20037;-36
2021/03/09 09:02:26;;;;;;;8.35;7.57;;;17.50;63.10;;;;;;5010837;28;20026;-39
2021/03/09 09:04:56;;;;;;;8.40;7.70;;;17.50;63.20;;;;;;5007846;28;20499;-39
2021/03/09 09:07:35;;;;;;;8.75;7.97;;;17.40;63.20;;;;;;5005949;28;20408;-36
2021/03/09 09:10:15;;;;;;;7.57;6.97;;;17.50;63.20;;;;;;5004839;28;20034;-39
2021/03/09 09:12:42;;;;;;;7.80;7.20;;;17.50;63.00;;;;;;5002082;28;20061;-38
2021/03/09 09:15:27;;;;;;;6.65;6.25;;;17.50;62.50;;;;;;4990439;28;20030;-37
2021/03/09 09:17:54;;;;;;;8.23;7.47;;;17.50;63.20;;;;;;5006278;28;20061;-39
2021/03/09 09:20:24;;;;;;;6.95;6.35;;;17.50;63.20;;;;;;5007856;28;20125;-39
2021/03/09 09:22:52;;;;;;;6.70;6.25;;;17.50;62.80;;;;;;5006112;28;20061;-36
2021/03/09 09:25:17;;;;;;;7.13;6.63;;;17.50;62.40;;;;;;5008095;28;20084;-35
2021/03/09 09:27:48;;;;;;;8.60;7.50;;;17.50;63.20;;;;;;5007289;28;20042;-36
2021/03/09 09:30:18;;;;;;;7.68;7.07;;;17.50;62.70;;;;;;5006998;28;20054;-38
2021/03/09 09:32:49;;;;;;;7.10;6.47;;;17.50;62.80;;;;;;5005692;28;20045;-35
2021/03/09 09:35:15;;;;;;;6.97;6.40;;;17.50;63.50;;;;;;5001267;28;20080;-38
2021/03/09 09:37:48;;;;;;;8.00;7.30;;;17.50;62.10;;;;;;5000616;28;20038;-38
2021/03/09 09:40:14;;;;;;;7.90;7.20;;;17.60;60.70;;;;;;5011404;28;20044;-38
2021/03/09 09:42:40;;;;;;;8.30;7.60;;;17.60;59.90;;;;;;5011164;28;20504;-39
2021/03/09 09:45:07;;;;;;;8.35;7.53;;;17.60;60.90;;;;;;5009699;28;20032;-38
2021/03/09 09:47:33;;;;;;;7.45;6.70;;;17.70;61.20;;;;;;4995334;28;20060;-36
2021/03/09 09:49:58;;;;;;;8.63;7.93;;;17.70;61.20;;;;;;5003611;28;20079;-37
2021/03/09 09:52:24;;;;;;;8.40;7.40;;;17.70;60.50;;;;;;4655957;28;10000273;-37
2021/03/09 09:54:54;;;;;;;8.18;7.15;;;17.70;60.40;;;;;;5006658;28;20052;-35
2021/03/09 09:57:20;;;;;;;8.15;7.38;;;17.70;60.40;;;;;;5005285;28;20041;-37
2021/03/09 09:59:46;;;;;;;6.38;5.93;;;17.70;60.60;;;;;;5010142;28;20038;-36
2021/03/09 10:02:23;;;;;;;6.90;6.40;;;17.80;60.50;;;;;;5001084;28;20034;-38
2021/03/09 10:04:50;;;;;;;7.22;6.63;;;17.80;60.00;;;;;;4990232;28;20496;-39
2021/03/09 10:07:17;;;;;;;7.45;6.80;;;17.90;60.10;;;;;;4984593;28;20026;-37
2021/03/09 10:10:06;;;;;;;7.95;7.25;;;17.90;60.80;;;;;;5006875;28;20038;-36
2021/03/09 10:12:36;;;;;;;8.45;7.75;;;17.80;60.20;;;;;;5008736;28;20443;-34
2021/03/09 10:15:03;;;;;;;7.47;6.97;;;17.80;59.30;;;;;;5011642;28;20028;-34
2021/03/09 10:17:28;;;;;;;7.18;6.68;;;17.80;60.10;;;;;;5012760;28;20763;-34
2021/03/09 10:19:55;;;;;;;7.95;7.35;;;17.80;60.10;;;;;;4987687;28;20026;-38
2021/03/09 10:22:22;;;;;;;8.18;7.47;;;17.70;60.00;;;;;;5010709;28;20381;-33
2021/03/09 10:24:48;;;;;;;6.65;6.15;;;17.70;60.40;;;;;;5012017;28;20108;-34
2021/03/09 10:27:22;;;;;;;8.38;7.68;;;17.60;60.30;;;;;;5009826;28;20631;-34
2021/03/09 10:29:48;;;;;;;8.30;7.60;;;17.60;60.30;;;;;;5003983;28;20048;-36
2021/03/09 10:32:18;;;;;;;7.82;7.13;;;17.60;60.40;;;;;;5008125;28;20061;-38
2021/03/09 10:34:49;;;;;;;8.35;7.65;;;17.60;60.20;;;;;;5007420;28;20507;-37
2021/03/09 10:37:16;;;;;;;7.93;7.32;;;17.60;60.60;;;;;;5009273;28;20034;-37
2021/03/09 10:39:58;;;;;;;7.82;7.18;;;17.70;60.30;;;;;;5011083;28;20034;-41
2021/03/09 10:42:37;;;;;;;8.40;7.60;;;17.70;60.50;;;;;;4980714;28;20089;-40
2021/03/09 10:45:26;;;;;;;8.73;7.88;;;17.80;59.60;;;;;;4994338;28;20057;-34
2021/03/09 10:48:09;;;;;;;8.48;7.68;;;17.70;60.20;;;;;;5010975;28;20018;-36
2021/03/09 10:50:39;;;;;;;9.23;7.40;;;17.80;60.40;;;;;;4992232;28;20042;-38
2021/03/09 10:53:05;;;;;;;6.53;6.03;;;17.80;60.30;;;;;;5012160;28;20419;-39
2021/03/09 10:55:30;;;;;;;7.50;7.00;;;17.90;60.10;;;;;;4995321;28;20109;-39
2021/03/09 10:57:56;;;;;;;7.13;6.43;;;18.00;60.10;;;;;;5009955;28;20096;-36
2021/03/09 11:00:22;;;;;;;7.40;6.80;;;17.90;60.10;;;;;;5012566;28;20030;-36
2021/03/09 11:02:48;;;;;;;7.05;6.45;;;18.00;60.00;;;;;;5011989;28;20496;-37
2021/03/09 11:05:14;;;;;;;8.43;6.93;;;18.00;60.10;;;;;;5013227;28;20030;-36
2021/03/09 11:07:40;;;;;;;7.82;7.22;;;18.00;60.00;;;;;;5011296;28;20037;-37
2021/03/09 11:10:07;;;;;;;7.53;6.93;;;18.10;60.10;;;;;;5011449;28;20031;-40
2021/03/09 11:12:32;;;;;;;7.00;6.40;;;18.10;59.90;;;;;;5010806;28;20030;-37
2021/03/09 11:14:58;;;;;;;8.13;6.18;;;18.10;59.90;;;;;;5011411;28;20334;-33
2021/03/09 11:17:24;;;;;;;6.15;5.75;;;18.20;59.60;;;;;;4995172;28;20038;-40
2021/03/09 11:19:49;;;;;;;6.30;5.57;;;18.20;59.60;;;;;;5009475;28;20030;-35
2021/03/09 11:22:16;;;;;;;6.20;5.72;;;18.20;59.70;;;;;;5011111;28;20525;-35
2021/03/09 11:24:41;;;;;;;10.38;6.15;;;18.30;59.80;;;;;;5010886;28;20034;-37
2021/03/09 11:27:09;;;;;;;6.60;6.00;;;18.40;60.00;;;;;;4662976;28;10000353;-36
2021/03/09 11:29:35;;;;;;;6.28;5.82;;;18.40;59.70;;;;;;5006897;28;20080;-38
2021/03/09 11:32:00;;;;;;;5.97;5.57;;;18.40;59.70;;;;;;5003743;28;20069;-39
2021/03/09 11:34:26;;;;;;;5.82;5.35;;;18.50;59.80;;;;;;5007002;28;20026;-38
2021/03/09 11:36:52;;;;;;;6.60;6.13;;;18.50;59.80;;;;;;4656600;28;9999722;-40
2021/03/09 11:39:18;;;;;;;5.60;5.20;;;18.50;59.90;;;;;;4993306;28;20276;-39
2021/03/09 11:41:43;;;;;;;6.60;5.93;;;18.50;59.80;;;;;;4992974;28;20034;-42
2021/03/09 11:44:09;;;;;;;7.88;7.05;;;18.50;59.80;;;;;;4991789;28;20234;-34
2021/03/09 11:46:35;;;;;;;6.53;5.93;;;18.60;60.00;;;;;;4986726;28;20127;-36
2021/03/09 11:49:01;;;;;;;6.70;6.00;;;18.60;60.10;;;;;;4988799;28;20044;-39
2021/03/09 11:51:27;;;;;;;6.85;6.22;;;18.60;60.00;;;;;;4986053;28;20556;-37
2021/03/09 11:53:53;;;;;;;6.32;5.80;;;18.70;61.10;;;;;;4990846;28;20446;-39
2021/03/09 11:56:18;;;;;;;7.72;5.95;;;18.70;60.50;;;;;;4987109;28;20045;-35
2021/03/09 11:58:44;;;;;;;5.88;5.45;;;18.70;60.80;;;;;;4971027;28;20036;-41
2021/03/09 12:01:09;;;;;;;4.40;4.10;;;18.70;61.30;;;;;;4989105;28;20061;-37
2021/03/09 12:03:35;;;;;;;8.80;5.90;;;18.80;61.50;;;;;;4984135;28;20054;-37
2021/03/09 12:06:00;;;;;;;8.68;6.13;;;18.80;61.10;;;;;;4984863;28;20034;-38
2021/03/09 12:08:26;;;;;;;6.15;5.60;;;18.90;62.80;;;;;;4992144;28;20033;-39
2021/03/09 12:10:52;;;;;;;9.40;4.68;;;18.90;62.70;;;;;;4975861;28;20149;-38
2021/03/09 12:13:17;;;;;;;10.32;5.68;;;18.90;63.20;;;;;;4989993;28;20034;-37
2021/03/09 12:15:43;;;;;;;5.43;4.75;;;18.90;63.40;;;;;;4987470;28;20080;-38
2021/03/09 12:18:09;;;;;;;5.82;4.55;;;18.90;64.00;;;;;;4995916;28;22197;-39
2021/03/09 12:20:34;;;;;;;6.00;4.90;;;18.90;64.10;;;;;;4971282;28;20026;-37
2021/03/09 12:23:00;;;;;;;6.53;5.10;;;18.90;63.80;;;;;;4994514;28;20140;-39
2021/03/09 12:25:25;;;;;;;6.55;5.40;;;19.00;63.80;;;;;;4992611;28;20496;-39
2021/03/09 12:27:51;;;;;;;5.90;5.40;;;19.00;64.10;;;;;;4986529;28;20033;-39
2021/03/09 12:30:17;;;;;;;10.45;6.60;;;19.00;64.10;;;;;;4997716;28;20073;-41
2021/03/09 12:32:43;;;;;;;11.98;5.50;;;19.10;63.80;;;;;;4984189;28;20040;-40
2021/03/09 12:35:09;;;;;;;8.13;5.43;;;19.10;63.50;;;;;;4984244;28;20031;-39
2021/03/09 12:37:35;;;;;;;5.63;5.10;;;19.10;63.40;;;;;;4966941;28;20050;-41
2021/03/09 12:40:01;;;;;;;6.45;5.65;;;19.10;64.50;;;;;;4988323;28;20040;-40
2021/03/09 12:42:26;;;;;;;7.93;6.20;;;19.10;63.60;;;;;;5004003;28;20088;-39
2021/03/09 12:44:52;;;;;;;7.38;5.80;;;19.10;64.50;;;;;;5005652;28;20035;-39
2021/03/09 12:47:17;;;;;;;7.20;5.75;;;19.10;65.00;;;;;;5006696;28;20036;-39
2021/03/09 12:49:44;;;;;;;9.68;5.78;;;19.10;64.20;;;;;;5008128;28;20026;-39
2021/03/09 12:52:09;;;;;;;7.78;6.00;;;19.10;64.20;;;;;;5005925;28;20492;-39
2021/03/09 12:54:35;;;;;;;11.90;5.85;;;19.10;64.20;;;;;;5008132;28;20045;-40